Hokusei Maru — JD3263 — position and weather

sailwx.info

Track history (hours):
 
Tides and Currents Weather Stations Pressure Air Temp Water Temp Dewpoint Dewpoint Depression Visibility Wind Speed Wind Dir Waves Ship Positions

Hokusei Maru

Last reported at 2018-Jun-25 05:21 UTC. Time now 2018-Jun-25 17:30 UTC.
Position N 35°03' E 139°30'.

Length 83 m; draft 4.6 m.

Type: Cargo ship. MMSI: 431003032.

Date/timePositionNaut miles runAvg speedWind from/ knotsBaromVisibWave heightAir tempDewpointWater temp
2018-Jun-25 05:21N 35°03' E 139°30'411.2
2018-Jun-25 05:00N 35°05' E 139°34'611.9
2018-Jun-25 04:30N 35°07' E 139°41'611.4
2018-Jun-25 04:00N 35°11' E 139°45'510.4
2018-Jun-25 03:30N 35°17' E 139°45'611.1
2018-Jun-25 03:00N 35°22' E 139°42'510.5
2018-Jun-25 02:30N 35°26' E 139°45'611.7
2018-Jun-25 02:00N 35°30' E 139°51'510.5
2018-Jun-25 01:29N 35°28' E 139°58'0 0.1
2018-Jun-24 23:12N 35°28' E 139°58'1 0.5
2018-Jun-24 19:59N 35°29' E 139°56'0 0.0
2018-Jun-24 19:29N 35°29' E 139°56'711.4
2018-Jun-24 18:51N 35°26' E 139°48'412.8
2018-Jun-24 18:31N 35°22' E 139°45'711.5
2018-Jun-24 17:56N 35°16' E 139°47'512.5
2018-Jun-24 17:30N 35°10' E 139°47'612.6
2018-Jun-24 17:00N 35°05' E 139°43'612.9
2018-Jun-24 16:30N 35°00' E 139°37'11 0.3
2018-Jun-23 06:40N 35°10' E 139°44'211.7
2018-Jun-23 06:30N 35°12' E 139°45'511.0
2018-Jun-23 06:01N 35°17' E 139°45'611.6
2018-Jun-23 05:30N 35°22' E 139°42'611.1
2018-Jun-23 04:58N 35°27' E 139°47'511.4
2018-Jun-23 04:30N 35°30' E 139°53'4 0.8
2018-Jun-22 23:51N 35°29' E 139°57'3 9.5
2018-Jun-22 23:30N 35°28' E 139°53'712.5
2018-Jun-22 22:57N 35°24' E 139°46'612.8
2018-Jun-22 22:31N 35°18' E 139°44'8 0.2
2018-Jun-21 07:26N 35°11' E 139°44'510.5
2018-Jun-21 06:59N 35°15' E 139°46'612.1
2018-Jun-21 06:31N 35°20' E 139°42'611.0
2018-Jun-21 05:59N 35°25' E 139°44'612.1
2018-Jun-21 05:30N 35°29' E 139°50'5 0.4
2018-Jun-20 15:52N 35°28' E 139°56'0 0.0
2018-Jun-20 15:16N 35°28' E 139°56'0 0.0
2018-Jun-20 14:49N 35°28' E 139°56'0 0.0
2018-Jun-20 14:25N 35°28' E 139°56'2 0.2
2018-Jun-20 00:11N 35°27' E 139°58'1 3.8
2018-Jun-19 23:56N 35°28' E 139°58'811.6
2018-Jun-19 23:13N 35°26' E 139°48'312.9
2018-Jun-19 23:00N 35°23' E 139°46'1212.1
2018-Jun-19 22:02N 35°11' E 139°46'012.8
2018-Jun-19 22:00N 35°11' E 139°46'  
2018-Jun-17 03:36N 35°11' E 139°45'112.7
2018-Jun-17 03:30N 35°13' E 139°46'712.5
2018-Jun-17 02:58N 35°19' E 139°43'511.5
2018-Jun-17 02:30N 35°24' E 139°43'612.2
2018-Jun-17 02:00N 35°28' E 139°49'4 0.8
2018-Jun-16 21:14N 35°29' E 139°53'512.1
2018-Jun-16 20:49N 35°26' E 139°48'412.5
2018-Jun-16 20:30N 35°22' E 139°45'711.4
2018-Jun-16 19:53N 35°15' E 139°47'6 0.2
2018-Jun-15 06:57N 35°10' E 139°43'611.0
2018-Jun-15 06:25N 35°15' E 139°46'511.1
2018-Jun-15 06:00N 35°19' E 139°43'510.9
2018-Jun-15 05:30N 35°24' E 139°43'  
Track history (hours):
 
Tides and Currents Weather Stations Pressure Air Temp Water Temp Dewpoint Dewpoint Depression Visibility Wind Speed Wind Dir Waves Ship Positions

Hokusei Maru

Last reported at 2018-Jun-25 05:21 UTC. Time now 2018-Jun-25 17:30 UTC.
Position N 35°03' E 139°30'.

Length 83 m; draft 4.6 m.

Type: Cargo ship. MMSI: 431003032.

Date/timePositionNaut miles runAvg speedWind from/ knotsBaromVisibWave heightAir tempDewpointWater temp
2018-Jun-25 05:21N 35°03' E 139°30'411.2
2018-Jun-25 05:00N 35°05' E 139°34'611.9
2018-Jun-25 04:30N 35°07' E 139°41'611.4
2018-Jun-25 04:00N 35°11' E 139°45'510.4
2018-Jun-25 03:30N 35°17' E 139°45'611.1
2018-Jun-25 03:00N 35°22' E 139°42'510.5
2018-Jun-25 02:30N 35°26' E 139°45'611.7
2018-Jun-25 02:00N 35°30' E 139°51'510.5
2018-Jun-25 01:29N 35°28' E 139°58'0 0.1
2018-Jun-24 23:12N 35°28' E 139°58'1 0.5
2018-Jun-24 19:59N 35°29' E 139°56'0 0.0
2018-Jun-24 19:29N 35°29' E 139°56'711.4
2018-Jun-24 18:51N 35°26' E 139°48'412.8
2018-Jun-24 18:31N 35°22' E 139°45'711.5
2018-Jun-24 17:56N 35°16' E 139°47'512.5
2018-Jun-24 17:30N 35°10' E 139°47'612.6
2018-Jun-24 17:00N 35°05' E 139°43'612.9
2018-Jun-24 16:30N 35°00' E 139°37'11 0.3
2018-Jun-23 06:40N 35°10' E 139°44'211.7
2018-Jun-23 06:30N 35°12' E 139°45'511.0
2018-Jun-23 06:01N 35°17' E 139°45'611.6
2018-Jun-23 05:30N 35°22' E 139°42'611.1
2018-Jun-23 04:58N 35°27' E 139°47'511.4
2018-Jun-23 04:30N 35°30' E 139°53'4 0.8
2018-Jun-22 23:51N 35°29' E 139°57'3 9.5
2018-Jun-22 23:30N 35°28' E 139°53'712.5
2018-Jun-22 22:57N 35°24' E 139°46'612.8
2018-Jun-22 22:31N 35°18' E 139°44'8 0.2
2018-Jun-21 07:26N 35°11' E 139°44'510.5
2018-Jun-21 06:59N 35°15' E 139°46'612.1
2018-Jun-21 06:31N 35°20' E 139°42'611.0
2018-Jun-21 05:59N 35°25' E 139°44'612.1
2018-Jun-21 05:30N 35°29' E 139°50'5 0.4
2018-Jun-20 15:52N 35°28' E 139°56'0 0.0
2018-Jun-20 15:16N 35°28' E 139°56'0 0.0
2018-Jun-20 14:49N 35°28' E 139°56'0 0.0
2018-Jun-20 14:25N 35°28' E 139°56'2 0.2
2018-Jun-20 00:11N 35°27' E 139°58'1 3.8
2018-Jun-19 23:56N 35°28' E 139°58'811.6
2018-Jun-19 23:13N 35°26' E 139°48'312.9
2018-Jun-19 23:00N 35°23' E 139°46'1212.1
2018-Jun-19 22:02N 35°11' E 139°46'012.8
2018-Jun-19 22:00N 35°11' E 139°46'  
2018-Jun-17 03:36N 35°11' E 139°45'112.7
2018-Jun-17 03:30N 35°13' E 139°46'712.5
2018-Jun-17 02:58N 35°19' E 139°43'511.5
2018-Jun-17 02:30N 35°24' E 139°43'612.2
2018-Jun-17 02:00N 35°28' E 139°49'4 0.8
2018-Jun-16 21:14N 35°29' E 139°53'512.1
2018-Jun-16 20:49N 35°26' E 139°48'412.5
2018-Jun-16 20:30N 35°22' E 139°45'711.4
2018-Jun-16 19:53N 35°15' E 139°47'6 0.2
2018-Jun-15 06:57N 35°10' E 139°43'611.0
2018-Jun-15 06:25N 35°15' E 139°46'511.1
2018-Jun-15 06:00N 35°19' E 139°43'510.9
2018-Jun-15 05:30N 35°24' E 139°43'  

Dump ship's entire track history